sensor_id;sensor_type;location;lat;lon;timestamp;noise_LAeq;noise_LA_min;noise_LA_max;noise_LA01;noise_LA95
66589;Laerm;53447;49.272;11.070;2024-01-30T00:00:33;52.06;40.18;71.56;;
66589;Laerm;53447;49.272;11.070;2024-01-30T00:02:59;42.10;39.03;44.44;;
66589;Laerm;53447;49.272;11.070;2024-01-30T00:05:24;42.23;39.88;45.26;;
66589;Laerm;53447;49.272;11.070;2024-01-30T00:07:50;42.20;39.64;45.09;;
66589;Laerm;53447;49.272;11.070;2024-01-30T00:10:15;42.33;39.72;44.44;;
66589;Laerm;53447;49.272;11.070;2024-01-30T00:12:40;42.92;40.66;51.46;;
66589;Laerm;53447;49.272;11.070;2024-01-30T00:15:05;42.70;41.03;44.07;;
66589;Laerm;53447;49.272;11.070;2024-01-30T00:17:33;42.38;39.72;43.67;;
66589;Laerm;53447;49.272;11.070;2024-01-30T00:19:58;42.00;39.72;44.25;;
66589;Laerm;53447;49.272;11.070;2024-01-30T00:22:23;41.60;38.53;42.93;;
66589;Laerm;53447;49.272;11.070;2024-01-30T00:24:49;41.70;37.31;43.47;;
66589;Laerm;53447;49.272;11.070;2024-01-30T00:27:14;41.95;37.96;43.70;;
66589;Laerm;53447;49.272;11.070;2024-01-30T00:29:39;41.74;39.48;43.01;;
66589;Laerm;53447;49.272;11.070;2024-01-30T00:32:04;42.16;39.88;43.67;;
66589;Laerm;53447;49.272;11.070;2024-01-30T00:34:30;42.47;40.72;43.61;;
66589;Laerm;53447;49.272;11.070;2024-01-30T00:36:55;42.49;40.85;48.07;;
66589;Laerm;53447;49.272;11.070;2024-01-30T00:39:20;42.51;39.56;59.89;;
66589;Laerm;53447;49.272;11.070;2024-01-30T00:41:45;41.71;38.93;43.02;;
66589;Laerm;53447;49.272;11.070;2024-01-30T00:44:11;41.55;37.45;42.81;;
66589;Laerm;53447;49.272;11.070;2024-01-30T00:46:36;41.38;36.38;42.77;;
66589;Laerm;53447;49.272;11.070;2024-01-30T00:49:01;41.48;37.31;42.81;;
66589;Laerm;53447;49.272;11.070;2024-01-30T00:51:26;41.74;37.45;43.80;;
66589;Laerm;53447;49.272;11.070;2024-01-30T00:53:54;42.15;38.63;46.93;;
66589;Laerm;53447;49.272;11.070;2024-01-30T00:56:19;42.45;39.72;43.64;;
66589;Laerm;53447;49.272;11.070;2024-01-30T00:58:45;42.77;41.15;44.78;;
66589;Laerm;53447;49.272;11.070;2024-01-30T01:01:10;44.08;40.03;52.10;;
66589;Laerm;53447;49.272;11.070;2024-01-30T01:03:35;42.05;39.39;44.60;;
66589;Laerm;53447;49.272;11.070;2024-01-30T01:06:00;42.17;37.45;46.04;;
66589;Laerm;53447;49.272;11.070;2024-01-30T01:08:26;42.27;40.25;45.56;;
66589;Laerm;53447;49.272;11.070;2024-01-30T01:10:51;42.87;40.66;48.14;;
66589;Laerm;53447;49.272;11.070;2024-01-30T01:13:17;42.84;40.85;48.38;;
66589;Laerm;53447;49.272;11.070;2024-01-30T01:15:42;43.01;41.19;48.10;;
66589;Laerm;53447;49.272;11.070;2024-01-30T01:18:07;43.37;41.26;48.22;;
66589;Laerm;53447;49.272;11.070;2024-01-30T01:20:32;49.00;41.43;66.28;;
66589;Laerm;53447;49.272;11.070;2024-01-30T01:22:58;43.11;41.64;44.95;;
66589;Laerm;53447;49.272;11.070;2024-01-30T01:25:23;43.21;41.43;48.50;;
66589;Laerm;53447;49.272;11.070;2024-01-30T01:27:48;42.48;40.18;48.09;;
66589;Laerm;53447;49.272;11.070;2024-01-30T01:30:17;41.70;39.30;48.29;;
66589;Laerm;53447;49.272;11.070;2024-01-30T01:32:46;42.37;40.03;48.64;;
66589;Laerm;53447;49.272;11.070;2024-01-30T01:35:16;43.28;41.03;45.66;;
66589;Laerm;53447;49.272;11.070;2024-01-30T01:37:41;42.75;40.53;47.77;;
66589;Laerm;53447;49.272;11.070;2024-01-30T01:40:06;41.74;39.72;47.40;;
66589;Laerm;53447;49.272;11.070;2024-01-30T01:42:32;42.25;40.39;48.61;;
66589;Laerm;53447;49.272;11.070;2024-01-30T01:44:57;42.15;39.96;49.15;;
66589;Laerm;53447;49.272;11.070;2024-01-30T01:47:22;43.80;40.72;54.64;;
66589;Laerm;53447;49.272;11.070;2024-01-30T01:49:48;42.67;41.19;43.95;;
66589;Laerm;53447;49.272;11.070;2024-01-30T01:52:13;42.69;40.66;44.93;;
66589;Laerm;53447;49.272;11.070;2024-01-30T01:54:38;43.65;41.15;47.95;;
66589;Laerm;53447;49.272;11.070;2024-01-30T01:57:04;43.66;41.38;48.78;;
66589;Laerm;53447;49.272;11.070;2024-01-30T01:59:29;42.62;40.91;44.41;;
66589;Laerm;53447;49.272;11.070;2024-01-30T02:01:55;42.15;37.31;43.80;;
66589;Laerm;53447;49.272;11.070;2024-01-30T02:04:20;41.96;39.21;43.47;;
66589;Laerm;53447;49.272;11.070;2024-01-30T02:06:45;41.65;39.12;43.04;;
66589;Laerm;53447;49.272;11.070;2024-01-30T02:09:11;42.00;39.56;44.25;;
66589;Laerm;53447;49.272;11.070;2024-01-30T02:11:36;41.71;39.64;43.48;;
66589;Laerm;53447;49.272;11.070;2024-01-30T02:14:02;42.36;40.25;45.74;;
66589;Laerm;53447;49.272;11.070;2024-01-30T02:16:28;42.38;40.11;45.72;;
66589;Laerm;53447;49.272;11.070;2024-01-30T02:18:53;42.50;40.32;44.75;;
66589;Laerm;53447;49.272;11.070;2024-01-30T02:21:18;42.49;40.03;51.45;;
66589;Laerm;53447;49.272;11.070;2024-01-30T02:23:44;42.25;39.80;43.86;;
66589;Laerm;53447;49.272;11.070;2024-01-30T02:26:11;41.95;37.71;43.70;;
66589;Laerm;53447;49.272;11.070;2024-01-30T02:28:37;41.83;37.71;46.41;;
66589;Laerm;53447;49.272;11.070;2024-01-30T02:31:02;42.01;35.06;50.50;;
66589;Laerm;53447;49.272;11.070;2024-01-30T02:33:27;41.86;37.02;43.90;;
66589;Laerm;53447;49.272;11.070;2024-01-30T02:35:52;42.25;38.63;44.19;;
66589;Laerm;53447;49.272;11.070;2024-01-30T02:38:17;43.28;41.09;49.32;;
66589;Laerm;53447;49.272;11.070;2024-01-30T02:40:43;42.29;40.39;43.67;;
66589;Laerm;53447;49.272;11.070;2024-01-30T02:43:08;42.59;40.79;43.80;;
66589;Laerm;53447;49.272;11.070;2024-01-30T02:45:33;42.53;40.18;43.77;;
66589;Laerm;53447;49.272;11.070;2024-01-30T02:47:59;42.53;38.93;45.21;;
66589;Laerm;53447;49.272;11.070;2024-01-30T02:50:24;42.24;40.11;46.20;;
66589;Laerm;53447;49.272;11.070;2024-01-30T02:52:49;42.17;39.03;44.25;;
66589;Laerm;53447;49.272;11.070;2024-01-30T02:55:14;41.67;38.42;43.30;;
66589;Laerm;53447;49.272;11.070;2024-01-30T02:57:42;41.95;40.03;43.64;;
66589;Laerm;53447;49.272;11.070;2024-01-30T03:00:07;41.86;38.42;43.44;;
66589;Laerm;53447;49.272;11.070;2024-01-30T03:02:34;42.09;38.93;44.93;;
66589;Laerm;53447;49.272;11.070;2024-01-30T03:04:59;42.81;40.91;44.95;;
66589;Laerm;53447;49.272;11.070;2024-01-30T03:07:25;42.58;40.97;44.04;;
66589;Laerm;53447;49.272;11.070;2024-01-30T03:09:50;42.61;40.66;45.47;;
66589;Laerm;53447;49.272;11.070;2024-01-30T03:12:15;42.24;39.96;44.49;;
66589;Laerm;53447;49.272;11.070;2024-01-30T03:14:40;42.81;40.25;49.59;;
66589;Laerm;53447;49.272;11.070;2024-01-30T03:17:06;43.20;40.97;45.54;;
66589;Laerm;53447;49.272;11.070;2024-01-30T03:19:31;43.27;40.85;47.10;;
66589;Laerm;53447;49.272;11.070;2024-01-30T03:21:56;42.06;39.96;44.10;;
66589;Laerm;53447;49.272;11.070;2024-01-30T03:24:22;42.15;39.88;44.39;;
66589;Laerm;53447;49.272;11.070;2024-01-30T03:26:47;42.46;39.80;44.55;;
66589;Laerm;53447;49.272;11.070;2024-01-30T03:29:12;42.61;40.85;45.66;;
66589;Laerm;53447;49.272;11.070;2024-01-30T03:31:38;42.59;40.32;44.49;;
66589;Laerm;53447;49.272;11.070;2024-01-30T03:34:03;42.36;40.66;44.41;;
66589;Laerm;53447;49.272;11.070;2024-01-30T03:36:29;42.53;40.46;44.27;;
66589;Laerm;53447;49.272;11.070;2024-01-30T03:38:54;42.44;40.25;45.39;;
66589;Laerm;53447;49.272;11.070;2024-01-30T03:41:19;42.29;40.18;43.89;;
66589;Laerm;53447;49.272;11.070;2024-01-30T03:43:44;42.34;39.96;43.83;;
66589;Laerm;53447;49.272;11.070;2024-01-30T03:46:11;42.65;40.92;44.36;;
66589;Laerm;53447;49.272;11.070;2024-01-30T03:48:36;42.65;41.03;43.80;;
66589;Laerm;53447;49.272;11.070;2024-01-30T03:51:02;42.75;40.91;44.36;;
66589;Laerm;53447;49.272;11.070;2024-01-30T03:53:27;42.59;40.72;43.92;;
66589;Laerm;53447;49.272;11.070;2024-01-30T03:55:52;43.32;41.15;46.18;;
66589;Laerm;53447;49.272;11.070;2024-01-30T03:58:17;42.83;40.38;46.11;;
66589;Laerm;53447;49.272;11.070;2024-01-30T04:00:42;42.79;40.85;45.82;;
66589;Laerm;53447;49.272;11.070;2024-01-30T04:03:08;43.04;41.21;44.88;;
66589;Laerm;53447;49.272;11.070;2024-01-30T04:05:33;43.67;41.59;46.87;;
66589;Laerm;53447;49.272;11.070;2024-01-30T04:07:58;42.88;41.03;44.01;;
66589;Laerm;53447;49.272;11.070;2024-01-30T04:10:23;42.83;41.21;44.75;;
66589;Laerm;53447;49.272;11.070;2024-01-30T04:12:49;42.72;40.97;45.78;;
66589;Laerm;53447;49.272;11.070;2024-01-30T04:15:15;42.90;40.85;49.72;;
66589;Laerm;53447;49.272;11.070;2024-01-30T04:17:41;42.88;41.21;44.04;;
66589;Laerm;53447;49.272;11.070;2024-01-30T04:20:06;43.04;41.09;44.88;;
66589;Laerm;53447;49.272;11.070;2024-01-30T04:22:32;42.89;41.38;44.70;;
66589;Laerm;53447;49.272;11.070;2024-01-30T04:24:57;42.84;40.91;47.53;;
66589;Laerm;53447;49.272;11.070;2024-01-30T04:27:22;43.02;41.09;46.05;;
66589;Laerm;53447;49.272;11.070;2024-01-30T04:29:47;43.05;41.21;45.52;;
66589;Laerm;53447;49.272;11.070;2024-01-30T04:32:12;43.67;41.48;46.38;;
66589;Laerm;53447;49.272;11.070;2024-01-30T04:34:38;43.64;41.84;49.58;;
66589;Laerm;53447;49.272;11.070;2024-01-30T04:37:03;43.32;41.74;45.96;;
66589;Laerm;53447;49.272;11.070;2024-01-30T04:39:28;43.30;41.43;46.29;;
66589;Laerm;53447;49.272;11.070;2024-01-30T04:41:53;43.87;42.13;51.46;;
66589;Laerm;53447;49.272;11.070;2024-01-30T04:44:19;43.77;42.08;46.33;;
66589;Laerm;53447;49.272;11.070;2024-01-30T04:46:44;43.67;41.84;45.76;;
66589;Laerm;53447;49.272;11.070;2024-01-30T04:49:10;43.29;41.38;45.30;;
66589;Laerm;53447;49.272;11.070;2024-01-30T04:51:35;43.31;41.38;48.13;;
66589;Laerm;53447;49.272;11.070;2024-01-30T04:54:01;43.34;41.64;44.95;;
66589;Laerm;53447;49.272;11.070;2024-01-30T04:56:26;51.50;41.03;70.08;;
66589;Laerm;53447;49.272;11.070;2024-01-30T04:58:51;42.55;40.79;45.66;;
66589;Laerm;53447;49.272;11.070;2024-01-30T05:01:16;49.88;40.46;60.40;;
66589;Laerm;53447;49.272;11.070;2024-01-30T05:03:42;46.86;41.15;58.84;;
66589;Laerm;53447;49.272;11.070;2024-01-30T05:06:07;42.98;40.53;47.48;;
66589;Laerm;53447;49.272;11.070;2024-01-30T05:08:32;43.71;41.54;52.36;;
66589;Laerm;53447;49.272;11.070;2024-01-30T05:11:00;44.04;41.64;58.47;;
66589;Laerm;53447;49.272;11.070;2024-01-30T05:13:25;52.91;41.94;75.26;;
66589;Laerm;53447;49.272;11.070;2024-01-30T05:15:50;43.96;42.08;55.14;;
66589;Laerm;53447;49.272;11.070;2024-01-30T05:18:15;44.32;41.74;56.09;;
66589;Laerm;53447;49.272;11.070;2024-01-30T05:20:41;44.01;42.22;49.35;;
66589;Laerm;53447;49.272;11.070;2024-01-30T05:23:06;43.67;41.94;46.66;;
66589;Laerm;53447;49.272;11.070;2024-01-30T05:25:31;50.92;41.54;69.40;;
66589;Laerm;53447;49.272;11.070;2024-01-30T05:27:56;43.06;41.54;47.38;;
66589;Laerm;53447;49.272;11.070;2024-01-30T05:30:21;52.28;41.84;70.72;;
66589;Laerm;53447;49.272;11.070;2024-01-30T05:32:47;43.23;41.43;44.41;;
66589;Laerm;53447;49.272;11.070;2024-01-30T05:35:12;43.16;41.21;44.95;;
66589;Laerm;53447;49.272;11.070;2024-01-30T05:37:37;54.34;41.48;70.94;;
66589;Laerm;53447;49.272;11.070;2024-01-30T05:40:03;43.39;41.74;51.00;;
66589;Laerm;53447;49.272;11.070;2024-01-30T05:42:28;49.95;40.91;68.90;;
66589;Laerm;53447;49.272;11.070;2024-01-30T05:44:53;44.04;40.91;55.82;;
66589;Laerm;53447;49.272;11.070;2024-01-30T05:47:18;42.76;40.72;45.16;;
66589;Laerm;53447;49.272;11.070;2024-01-30T05:49:44;52.19;41.26;69.98;;
66589;Laerm;53447;49.272;11.070;2024-01-30T05:52:09;43.40;41.74;58.03;;
66589;Laerm;53447;49.272;11.070;2024-01-30T05:54:34;43.58;41.64;49.14;;
66589;Laerm;53447;49.272;11.070;2024-01-30T05:56:59;44.10;41.48;58.56;;
66589;Laerm;53447;49.272;11.070;2024-01-30T05:59:25;43.54;41.94;50.55;;
66589;Laerm;53447;49.272;11.070;2024-01-30T06:01:50;49.02;41.89;65.83;;
66589;Laerm;53447;49.272;11.070;2024-01-30T06:04:15;43.86;41.32;57.71;;
66589;Laerm;53447;49.272;11.070;2024-01-30T06:06:41;49.44;41.09;66.03;;
66589;Laerm;53447;49.272;11.070;2024-01-30T06:09:06;51.77;41.54;69.89;;
66589;Laerm;53447;49.272;11.070;2024-01-30T06:11:34;52.30;42.47;70.84;;
66589;Laerm;53447;49.272;11.070;2024-01-30T06:13:59;44.04;42.27;49.69;;
66589;Laerm;53447;49.272;11.070;2024-01-30T06:16:24;50.59;41.94;72.54;;
66589;Laerm;53447;49.272;11.070;2024-01-30T06:18:49;54.79;42.31;71.07;;
66589;Laerm;53447;49.272;11.070;2024-01-30T06:21:15;46.49;43.64;56.22;;
66589;Laerm;53447;49.272;11.070;2024-01-30T06:23:40;45.94;42.89;57.64;;
66589;Laerm;53447;49.272;11.070;2024-01-30T06:26:06;52.26;42.36;68.33;;
66589;Laerm;53447;49.272;11.070;2024-01-30T06:28:31;44.66;42.40;56.26;;
66589;Laerm;53447;49.272;11.070;2024-01-30T06:30:56;53.28;42.77;68.95;;
66589;Laerm;53447;49.272;11.070;2024-01-30T06:33:22;50.90;43.15;64.73;;
66589;Laerm;53447;49.272;11.070;2024-01-30T06:35:47;52.58;43.33;64.28;;
66589;Laerm;53447;49.272;11.070;2024-01-30T06:38:12;52.98;42.89;68.50;;
66589;Laerm;53447;49.272;11.070;2024-01-30T06:40:38;56.91;43.47;70.64;;
66589;Laerm;53447;49.272;11.070;2024-01-30T06:43:04;49.71;43.19;61.23;;
66589;Laerm;53447;49.272;11.070;2024-01-30T06:45:29;56.53;42.18;73.80;;
66589;Laerm;53447;49.272;11.070;2024-01-30T06:47:54;50.70;42.18;65.33;;
66589;Laerm;53447;49.272;11.070;2024-01-30T06:50:20;52.01;43.08;63.55;;
66589;Laerm;53447;49.272;11.070;2024-01-30T06:52:45;51.96;42.69;66.54;;
66589;Laerm;53447;49.272;11.070;2024-01-30T06:55:10;55.61;42.57;73.30;;
66589;Laerm;53447;49.272;11.070;2024-01-30T06:57:36;53.73;42.36;69.03;;
66589;Laerm;53447;49.272;11.070;2024-01-30T07:00:01;51.30;42.85;68.12;;
66589;Laerm;53447;49.272;11.070;2024-01-30T07:02:26;53.71;43.12;72.09;;
66589;Laerm;53447;49.272;11.070;2024-01-30T07:04:51;54.47;43.01;69.31;;
66589;Laerm;53447;49.272;11.070;2024-01-30T07:07:17;53.08;42.31;71.28;;
66589;Laerm;53447;49.272;11.070;2024-01-30T07:09:42;55.39;43.23;71.74;;
66589;Laerm;53447;49.272;11.070;2024-01-30T07:12:07;48.84;42.89;69.48;;
66589;Laerm;53447;49.272;11.070;2024-01-30T07:14:33;48.42;42.65;62.03;;
66589;Laerm;53447;49.272;11.070;2024-01-30T07:16:58;47.97;42.27;63.36;;
66589;Laerm;53447;49.272;11.070;2024-01-30T07:19:23;54.33;42.95;73.32;;
66589;Laerm;53447;49.272;11.070;2024-01-30T07:21:48;48.12;42.36;63.85;;
66589;Laerm;53447;49.272;11.070;2024-01-30T07:24:13;50.54;42.49;67.63;;
66589;Laerm;53447;49.272;11.070;2024-01-30T07:26:39;52.97;42.57;71.88;;
66589;Laerm;53447;49.272;11.070;2024-01-30T07:29:04;53.65;42.36;70.57;;
66589;Laerm;53447;49.272;11.070;2024-01-30T07:31:29;51.71;42.27;71.22;;
66589;Laerm;53447;49.272;11.070;2024-01-30T07:33:54;52.32;42.36;66.93;;
66589;Laerm;53447;49.272;11.070;2024-01-30T07:36:20;49.65;42.49;64.82;;
66589;Laerm;53447;49.272;11.070;2024-01-30T07:38:45;53.24;42.22;72.48;;
66589;Laerm;53447;49.272;11.070;2024-01-30T07:41:10;49.51;42.53;63.37;;
66589;Laerm;53447;49.272;11.070;2024-01-30T07:43:36;49.39;42.31;63.57;;
66589;Laerm;53447;49.272;11.070;2024-01-30T07:46:01;46.76;41.99;62.51;;
66589;Laerm;53447;49.272;11.070;2024-01-30T07:48:27;54.97;42.13;73.29;;
66589;Laerm;53447;49.272;11.070;2024-01-30T07:50:53;54.55;41.32;73.02;;
66589;Laerm;53447;49.272;11.070;2024-01-30T07:53:18;50.99;41.09;70.36;;
66589;Laerm;53447;49.272;11.070;2024-01-30T07:55:43;47.68;41.64;62.77;;
66589;Laerm;53447;49.272;11.070;2024-01-30T07:58:11;48.16;41.54;67.84;;
66589;Laerm;53447;49.272;11.070;2024-01-30T08:00:36;52.64;42.08;70.06;;
66589;Laerm;53447;49.272;11.070;2024-01-30T08:03:02;47.10;41.79;63.14;;
66589;Laerm;53447;49.272;11.070;2024-01-30T08:05:27;54.97;41.32;73.94;;
66589;Laerm;53447;49.272;11.070;2024-01-30T08:07:53;53.49;42.40;69.51;;
66589;Laerm;53447;49.272;11.070;2024-01-30T08:10:18;46.60;41.89;62.94;;
66589;Laerm;53447;49.272;11.070;2024-01-30T08:12:44;52.99;41.84;69.10;;
66589;Laerm;53447;49.272;11.070;2024-01-30T08:15:09;44.98;41.94;55.03;;
66589;Laerm;53447;49.272;11.070;2024-01-30T08:17:34;51.21;41.64;69.57;;
66589;Laerm;53447;49.272;11.070;2024-01-30T08:20:00;44.61;41.48;64.21;;
66589;Laerm;53447;49.272;11.070;2024-01-30T08:22:25;51.95;40.66;71.52;;
66589;Laerm;53447;49.272;11.070;2024-01-30T08:24:50;43.48;41.59;50.44;;
66589;Laerm;53447;49.272;11.070;2024-01-30T08:27:16;53.39;41.84;71.99;;
66589;Laerm;53447;49.272;11.070;2024-01-30T08:29:41;45.52;41.43;60.07;;
66589;Laerm;53447;49.272;11.070;2024-01-30T08:32:06;43.67;41.59;55.82;;
66589;Laerm;53447;49.272;11.070;2024-01-30T08:34:32;52.76;41.32;72.04;;
66589;Laerm;53447;49.272;11.070;2024-01-30T08:36:57;55.43;41.15;75.31;;
66589;Laerm;53447;49.272;11.070;2024-01-30T08:39:22;48.82;41.43;62.73;;
66589;Laerm;53447;49.272;11.070;2024-01-30T08:41:48;53.40;41.79;72.71;;
66589;Laerm;53447;49.272;11.070;2024-01-30T08:44:13;50.98;41.38;67.66;;
66589;Laerm;53447;49.272;11.070;2024-01-30T08:46:38;52.51;41.26;72.13;;
66589;Laerm;53447;49.272;11.070;2024-01-30T08:49:04;56.77;41.64;72.28;;
66589;Laerm;53447;49.272;11.070;2024-01-30T08:51:29;54.82;40.97;72.36;;
66589;Laerm;53447;49.272;11.070;2024-01-30T08:53:55;45.22;40.66;68.76;;
66589;Laerm;53447;49.272;11.070;2024-01-30T08:56:20;47.46;41.21;66.59;;
66589;Laerm;53447;49.272;11.070;2024-01-30T08:58:45;51.00;41.59;65.99;;
66589;Laerm;53447;49.272;11.070;2024-01-30T09:01:10;45.63;41.26;63.39;;
66589;Laerm;53447;49.272;11.070;2024-01-30T09:03:36;43.88;41.55;54.01;;
66589;Laerm;53447;49.272;11.070;2024-01-30T09:06:07;43.32;41.03;52.19;;
66589;Laerm;53447;49.272;11.070;2024-01-30T09:08:33;53.53;40.53;69.80;;
66589;Laerm;53447;49.272;11.070;2024-01-30T09:10:58;43.99;40.85;56.64;;
66589;Laerm;53447;49.272;11.070;2024-01-30T09:13:23;44.11;40.74;56.46;;
66589;Laerm;53447;49.272;11.070;2024-01-30T09:15:48;48.11;41.21;62.39;;
66589;Laerm;53447;49.272;11.070;2024-01-30T09:18:13;52.24;40.69;69.11;;
66589;Laerm;53447;49.272;11.070;2024-01-30T09:20:39;52.73;41.15;69.66;;
66589;Laerm;53447;49.272;11.070;2024-01-30T09:23:04;45.80;40.32;65.87;;
66589;Laerm;53447;49.272;11.070;2024-01-30T09:25:29;44.97;39.39;69.76;;
66589;Laerm;53447;49.272;11.070;2024-01-30T09:27:54;44.66;40.39;61.88;;
66589;Laerm;53447;49.272;11.070;2024-01-30T09:30:20;45.83;40.72;58.78;;
66589;Laerm;53447;49.272;11.070;2024-01-30T09:32:45;45.37;39.80;60.57;;
66589;Laerm;53447;49.272;11.070;2024-01-30T09:35:10;45.53;39.03;65.65;;
66589;Laerm;53447;49.272;11.070;2024-01-30T09:37:35;46.56;40.91;62.86;;
66589;Laerm;53447;49.272;11.070;2024-01-30T09:40:01;45.53;39.48;59.63;;
66589;Laerm;53447;49.272;11.070;2024-01-30T09:42:28;53.00;40.72;71.07;;
66589;Laerm;53447;49.272;11.070;2024-01-30T09:44:57;47.83;40.32;64.28;;
66589;Laerm;53447;49.272;11.070;2024-01-30T09:47:22;46.66;40.46;60.90;;
66589;Laerm;53447;49.272;11.070;2024-01-30T09:49:47;52.48;40.44;68.67;;
66589;Laerm;53447;49.272;11.070;2024-01-30T09:52:13;44.99;39.12;60.93;;
66589;Laerm;53447;49.272;11.070;2024-01-30T09:54:38;44.14;40.46;64.57;;
66589;Laerm;53447;49.272;11.070;2024-01-30T09:57:03;51.92;40.79;71.20;;
66589;Laerm;53447;49.272;11.070;2024-01-30T09:59:29;45.07;41.35;55.11;;
66589;Laerm;53447;49.272;11.070;2024-01-30T10:01:54;56.34;41.32;75.18;;
66589;Laerm;53447;49.272;11.070;2024-01-30T10:04:19;54.61;40.79;74.07;;
66589;Laerm;53447;49.272;11.070;2024-01-30T10:06:45;45.46;40.66;62.93;;
66589;Laerm;53447;49.272;11.070;2024-01-30T10:09:11;42.85;39.64;53.95;;
66589;Laerm;53447;49.272;11.070;2024-01-30T10:11:36;53.97;40.53;71.04;;
66589;Laerm;53447;49.272;11.070;2024-01-30T10:14:01;42.94;40.79;54.12;;
66589;Laerm;53447;49.272;11.070;2024-01-30T10:16:27;43.05;39.96;56.11;;
66589;Laerm;53447;49.272;11.070;2024-01-30T10:18:52;55.93;40.53;75.42;;
66589;Laerm;53447;49.272;11.070;2024-01-30T10:21:17;55.62;40.25;75.30;;
66589;Laerm;53447;49.272;11.070;2024-01-30T10:23:43;43.34;40.25;58.63;;
66589;Laerm;53447;49.272;11.070;2024-01-30T10:26:08;50.50;40.18;68.02;;
66589;Laerm;53447;49.272;11.070;2024-01-30T10:28:34;44.59;40.53;57.86;;
66589;Laerm;53447;49.272;11.070;2024-01-30T10:30:59;68.10;40.39;87.56;;
66589;Laerm;53447;49.272;11.070;2024-01-30T10:33:25;43.69;40.03;56.12;;
66589;Laerm;53447;49.272;11.070;2024-01-30T10:35:51;43.80;40.72;54.03;;
66589;Laerm;53447;49.272;11.070;2024-01-30T10:38:16;42.87;40.18;60.21;;
66589;Laerm;53447;49.272;11.070;2024-01-30T10:40:44;46.65;39.39;61.40;;
66589;Laerm;53447;49.272;11.070;2024-01-30T10:43:10;43.56;40.18;59.48;;
66589;Laerm;53447;49.272;11.070;2024-01-30T10:45:36;47.20;40.46;61.35;;
66589;Laerm;53447;49.272;11.070;2024-01-30T10:48:03;43.51;39.96;54.29;;
66589;Laerm;53447;49.272;11.070;2024-01-30T10:50:30;42.25;39.72;56.58;;
66589;Laerm;53447;49.272;11.070;2024-01-30T10:52:55;42.20;39.88;54.59;;
66589;Laerm;53447;49.272;11.070;2024-01-30T10:55:22;54.34;39.96;74.75;;
66589;Laerm;53447;49.272;11.070;2024-01-30T10:57:48;53.95;39.80;73.00;;
66589;Laerm;53447;49.272;11.070;2024-01-30T11:00:14;46.41;39.72;65.94;;
66589;Laerm;53447;49.272;11.070;2024-01-30T11:02:44;55.91;41.94;72.12;;
66589;Laerm;53447;49.272;11.070;2024-01-30T11:05:10;54.30;39.80;72.21;;
66589;Laerm;53447;49.272;11.070;2024-01-30T11:07:35;43.85;39.56;61.30;;
66589;Laerm;53447;49.272;11.070;2024-01-30T11:10:02;42.53;39.21;51.60;;
66589;Laerm;53447;49.272;11.070;2024-01-30T11:12:29;42.54;39.39;55.47;;
66589;Laerm;53447;49.272;11.070;2024-01-30T11:17:45;47.22;40.97;58.89;;
66589;Laerm;53447;49.272;11.070;2024-01-30T11:22:47;45.72;39.56;59.80;;
66589;Laerm;53447;49.272;11.070;2024-01-30T11:25:13;54.26;41.03;72.48;;
66589;Laerm;53447;49.272;11.070;2024-01-30T11:27:38;44.61;39.03;60.31;;
66589;Laerm;53447;49.272;11.070;2024-01-30T11:30:04;45.12;38.63;60.78;;
66589;Laerm;53447;49.272;11.070;2024-01-30T11:32:30;52.08;38.31;69.68;;
66589;Laerm;53447;49.272;11.070;2024-01-30T11:34:55;50.74;39.48;69.71;;
66589;Laerm;53447;49.272;11.070;2024-01-30T11:37:20;43.19;40.03;59.95;;
66589;Laerm;53447;49.272;11.070;2024-01-30T11:39:46;50.99;40.72;66.51;;
66589;Laerm;53447;49.272;11.070;2024-01-30T11:42:13;43.76;40.59;56.27;;
66589;Laerm;53447;49.272;11.070;2024-01-30T11:44:38;52.65;40.72;71.61;;
66589;Laerm;53447;49.272;11.070;2024-01-30T11:47:03;44.67;39.53;56.60;;
66589;Laerm;53447;49.272;11.070;2024-01-30T11:49:29;48.43;39.64;71.56;;
66589;Laerm;53447;49.272;11.070;2024-01-30T11:51:54;44.31;39.88;57.20;;
66589;Laerm;53447;49.272;11.070;2024-01-30T11:54:19;45.40;40.25;60.77;;
66589;Laerm;53447;49.272;11.070;2024-01-30T11:56:44;55.59;39.96;75.70;;
66589;Laerm;53447;49.272;11.070;2024-01-30T11:59:10;44.87;40.03;57.71;;
66589;Laerm;53447;49.272;11.070;2024-01-30T12:01:35;52.42;40.11;70.80;;
66589;Laerm;53447;49.272;11.070;2024-01-30T12:04:01;54.61;40.11;66.26;;
66589;Laerm;53447;49.272;11.070;2024-01-30T12:06:29;49.11;38.73;67.71;;
66589;Laerm;53447;49.272;11.070;2024-01-30T12:08:58;43.87;40.32;56.64;;
66589;Laerm;53447;49.272;11.070;2024-01-30T12:11:26;52.30;39.80;69.19;;
66589;Laerm;53447;49.272;11.070;2024-01-30T12:13:52;58.52;39.48;80.79;;
66589;Laerm;53447;49.272;11.070;2024-01-30T12:16:18;54.82;40.32;72.55;;
66589;Laerm;53447;49.272;11.070;2024-01-30T12:18:43;52.71;38.93;72.15;;
66589;Laerm;53447;49.272;11.070;2024-01-30T12:21:08;50.59;40.46;69.80;;
66589;Laerm;53447;49.272;11.070;2024-01-30T12:23:34;53.70;37.17;69.87;;
66589;Laerm;53447;49.272;11.070;2024-01-30T12:26:00;44.76;35.19;60.85;;
66589;Laerm;53447;49.272;11.070;2024-01-30T12:28:26;49.74;39.72;67.54;;
66589;Laerm;53447;49.272;11.070;2024-01-30T12:30:55;43.15;38.83;55.11;;
66589;Laerm;53447;49.272;11.070;2024-01-30T12:33:20;52.26;40.59;70.73;;
66589;Laerm;53447;49.272;11.070;2024-01-30T12:35:46;52.11;40.53;70.48;;
66589;Laerm;53447;49.272;11.070;2024-01-30T12:38:12;47.92;39.21;70.09;;
66589;Laerm;53447;49.272;11.070;2024-01-30T12:40:38;50.80;39.72;69.63;;
66589;Laerm;53447;49.272;11.070;2024-01-30T12:43:03;43.55;40.11;56.69;;
66589;Laerm;53447;49.272;11.070;2024-01-30T12:45:28;48.67;38.53;66.56;;
66589;Laerm;53447;49.272;11.070;2024-01-30T12:47:55;54.80;40.11;75.61;;
66589;Laerm;53447;49.272;11.070;2024-01-30T12:50:20;56.39;40.46;74.68;;
66589;Laerm;53447;49.272;11.070;2024-01-30T12:52:45;52.15;40.53;71.15;;
66589;Laerm;53447;49.272;11.070;2024-01-30T12:55:11;46.04;40.66;59.09;;
66589;Laerm;53447;49.272;11.070;2024-01-30T12:57:36;52.05;41.09;71.07;;
66589;Laerm;53447;49.272;11.070;2024-01-30T13:00:01;45.05;40.53;59.20;;
66589;Laerm;53447;49.272;11.070;2024-01-30T13:02:27;55.62;39.03;73.63;;
66589;Laerm;53447;49.272;11.070;2024-01-30T13:04:59;56.69;41.74;74.20;;
66589;Laerm;53447;49.272;11.070;2024-01-30T13:07:25;51.09;40.91;67.89;;
66589;Laerm;53447;49.272;11.070;2024-01-30T13:09:50;54.08;39.88;71.31;;
66589;Laerm;53447;49.272;11.070;2024-01-30T13:12:15;60.02;40.32;89.57;;
66589;Laerm;53447;49.272;11.070;2024-01-30T13:14:40;43.22;39.48;59.26;;
66589;Laerm;53447;49.272;11.070;2024-01-30T13:17:06;43.26;40.39;52.33;;
66589;Laerm;53447;49.272;11.070;2024-01-30T13:19:31;44.22;40.11;64.45;;
66589;Laerm;53447;49.272;11.070;2024-01-30T13:21:56;42.91;40.25;59.58;;
66589;Laerm;53447;49.272;11.070;2024-01-30T13:24:21;42.57;40.46;51.89;;
66589;Laerm;53447;49.272;11.070;2024-01-30T13:26:46;42.92;40.03;58.56;;